sensor_id;sensor_type;location;lat;lon;timestamp;P1;durP1;ratioP1;P2;durP2;ratioP2
25359;SDS011;13311;51.386;0.016;2022-09-06T00:04:31;5.65;;;3.35;;
25359;SDS011;13311;51.386;0.016;2022-09-06T00:09:31;4.75;;;3.60;;
25359;SDS011;13311;51.386;0.016;2022-09-06T00:14:32;6.85;;;3.78;;
25359;SDS011;13311;51.386;0.016;2022-09-06T00:19:33;4.38;;;3.50;;
25359;SDS011;13311;51.386;0.016;2022-09-06T00:24:34;7.47;;;3.75;;
25359;SDS011;13311;51.386;0.016;2022-09-06T00:29:36;5.22;;;3.45;;
25359;SDS011;13311;51.386;0.016;2022-09-06T00:34:36;4.50;;;3.85;;
25359;SDS011;13311;51.386;0.016;2022-09-06T00:39:37;8.93;;;4.32;;
25359;SDS011;13311;51.386;0.016;2022-09-06T00:44:38;8.73;;;4.10;;
25359;SDS011;13311;51.386;0.016;2022-09-06T00:49:48;6.43;;;4.13;;
25359;SDS011;13311;51.386;0.016;2022-09-06T00:54:52;6.95;;;4.15;;
25359;SDS011;13311;51.386;0.016;2022-09-06T00:59:54;8.23;;;4.40;;
25359;SDS011;13311;51.386;0.016;2022-09-06T01:04:55;9.15;;;4.70;;
25359;SDS011;13311;51.386;0.016;2022-09-06T01:36:26;6.07;;;4.35;;
25359;SDS011;13311;51.386;0.016;2022-09-06T01:41:32;5.72;;;4.15;;
25359;SDS011;13311;51.386;0.016;2022-09-06T01:46:34;6.25;;;3.88;;
25359;SDS011;13311;51.386;0.016;2022-09-06T01:57:12;5.72;;;3.40;;
25359;SDS011;13311;51.386;0.016;2022-09-06T02:08:39;7.07;;;3.78;;
25359;SDS011;13311;51.386;0.016;2022-09-06T02:13:45;4.47;;;3.63;;
25359;SDS011;13311;51.386;0.016;2022-09-06T02:24:03;6.25;;;3.53;;
25359;SDS011;13311;51.386;0.016;2022-09-06T02:29:08;5.13;;;3.70;;
25359;SDS011;13311;51.386;0.016;2022-09-06T02:34:10;8.05;;;3.70;;
25359;SDS011;13311;51.386;0.016;2022-09-06T02:39:15;6.45;;;4.30;;
25359;SDS011;13311;51.386;0.016;2022-09-06T02:44:15;9.32;;;4.47;;
25359;SDS011;13311;51.386;0.016;2022-09-06T02:49:21;7.13;;;4.28;;
25359;SDS011;13311;51.386;0.016;2022-09-06T02:54:22;6.25;;;3.80;;
25359;SDS011;13311;51.386;0.016;2022-09-06T02:59:24;6.18;;;4.45;;
25359;SDS011;13311;51.386;0.016;2022-09-06T03:04:24;7.82;;;3.95;;
25359;SDS011;13311;51.386;0.016;2022-09-06T03:09:25;7.78;;;4.10;;
25359;SDS011;13311;51.386;0.016;2022-09-06T03:14:26;6.75;;;4.75;;
25359;SDS011;13311;51.386;0.016;2022-09-06T03:19:26;5.63;;;4.05;;
25359;SDS011;13311;51.386;0.016;2022-09-06T03:24:27;6.45;;;4.28;;
25359;SDS011;13311;51.386;0.016;2022-09-06T03:29:28;7.10;;;3.83;;
25359;SDS011;13311;51.386;0.016;2022-09-06T03:34:29;6.80;;;4.32;;
25359;SDS011;13311;51.386;0.016;2022-09-06T03:39:29;5.47;;;4.10;;
25359;SDS011;13311;51.386;0.016;2022-09-06T03:44:30;6.53;;;4.55;;
25359;SDS011;13311;51.386;0.016;2022-09-06T03:49:31;6.80;;;4.22;;
25359;SDS011;13311;51.386;0.016;2022-09-06T03:54:32;7.40;;;4.50;;
25359;SDS011;13311;51.386;0.016;2022-09-06T03:59:32;9.52;;;5.22;;
25359;SDS011;13311;51.386;0.016;2022-09-06T04:04:33;4.88;;;4.20;;
25359;SDS011;13311;51.386;0.016;2022-09-06T04:09:34;6.72;;;4.32;;
25359;SDS011;13311;51.386;0.016;2022-09-06T04:14:34;5.97;;;4.28;;
25359;SDS011;13311;51.386;0.016;2022-09-06T04:19:35;7.65;;;4.45;;
25359;SDS011;13311;51.386;0.016;2022-09-06T04:24:36;7.68;;;4.55;;
25359;SDS011;13311;51.386;0.016;2022-09-06T04:29:37;7.82;;;4.93;;
25359;SDS011;13311;51.386;0.016;2022-09-06T04:34:37;9.60;;;4.72;;
25359;SDS011;13311;51.386;0.016;2022-09-06T04:39:38;8.50;;;5.05;;
25359;SDS011;13311;51.386;0.016;2022-09-06T04:44:39;11.23;;;5.75;;
25359;SDS011;13311;51.386;0.016;2022-09-06T04:49:40;15.88;;;6.90;;
25359;SDS011;13311;51.386;0.016;2022-09-06T04:54:41;11.73;;;7.15;;
25359;SDS011;13311;51.386;0.016;2022-09-06T04:59:42;9.15;;;6.13;;
25359;SDS011;13311;51.386;0.016;2022-09-06T05:04:43;13.07;;;6.93;;
25359;SDS011;13311;51.386;0.016;2022-09-06T05:09:44;9.48;;;6.18;;
25359;SDS011;13311;51.386;0.016;2022-09-06T05:14:44;11.70;;;6.32;;
25359;SDS011;13311;51.386;0.016;2022-09-06T05:19:45;9.85;;;5.72;;
25359;SDS011;13311;51.386;0.016;2022-09-06T05:24:46;10.40;;;6.70;;
25359;SDS011;13311;51.386;0.016;2022-09-06T05:29:47;14.48;;;7.03;;
25359;SDS011;13311;51.386;0.016;2022-09-06T05:34:48;8.52;;;6.10;;
25359;SDS011;13311;51.386;0.016;2022-09-06T05:39:49;15.10;;;7.15;;
25359;SDS011;13311;51.386;0.016;2022-09-06T05:44:49;13.52;;;6.18;;
25359;SDS011;13311;51.386;0.016;2022-09-06T05:49:50;8.48;;;6.35;;
25359;SDS011;13311;51.386;0.016;2022-09-06T05:54:52;12.13;;;6.75;;
25359;SDS011;13311;51.386;0.016;2022-09-06T05:59:53;14.85;;;7.85;;
25359;SDS011;13311;51.386;0.016;2022-09-06T06:04:54;18.95;;;7.55;;
25359;SDS011;13311;51.386;0.016;2022-09-06T06:09:55;9.52;;;6.95;;
25359;SDS011;13311;51.386;0.016;2022-09-06T06:14:55;16.67;;;6.57;;
25359;SDS011;13311;51.386;0.016;2022-09-06T06:19:56;16.30;;;6.90;;
25359;SDS011;13311;51.386;0.016;2022-09-06T06:24:57;11.98;;;6.70;;
25359;SDS011;13311;51.386;0.016;2022-09-06T06:29:58;16.98;;;6.85;;
25359;SDS011;13311;51.386;0.016;2022-09-06T06:34:58;15.38;;;7.43;;
25359;SDS011;13311;51.386;0.016;2022-09-06T06:39:59;12.88;;;7.25;;
25359;SDS011;13311;51.386;0.016;2022-09-06T06:45:00;12.00;;;6.25;;
25359;SDS011;13311;51.386;0.016;2022-09-06T06:50:00;11.95;;;5.95;;
25359;SDS011;13311;51.386;0.016;2022-09-06T06:55:01;14.90;;;5.30;;
25359;SDS011;13311;51.386;0.016;2022-09-06T07:00:02;10.98;;;5.63;;
25359;SDS011;13311;51.386;0.016;2022-09-06T07:05:04;15.13;;;6.00;;
25359;SDS011;13311;51.386;0.016;2022-09-06T07:10:05;12.93;;;4.88;;
25359;SDS011;13311;51.386;0.016;2022-09-06T07:15:06;12.27;;;5.07;;
25359;SDS011;13311;51.386;0.016;2022-09-06T07:20:08;10.52;;;5.10;;
25359;SDS011;13311;51.386;0.016;2022-09-06T07:25:09;11.10;;;4.60;;
25359;SDS011;13311;51.386;0.016;2022-09-06T07:30:12;10.48;;;3.30;;
25359;SDS011;13311;51.386;0.016;2022-09-06T07:35:13;10.27;;;3.90;;
25359;SDS011;13311;51.386;0.016;2022-09-06T07:40:14;9.77;;;3.05;;
25359;SDS011;13311;51.386;0.016;2022-09-06T07:45:15;11.32;;;3.28;;
25359;SDS011;13311;51.386;0.016;2022-09-06T07:50:16;15.38;;;4.43;;
25359;SDS011;13311;51.386;0.016;2022-09-06T07:55:17;10.45;;;2.90;;
25359;SDS011;13311;51.386;0.016;2022-09-06T08:00:17;13.65;;;3.08;;
25359;SDS011;13311;51.386;0.016;2022-09-06T08:05:18;11.77;;;2.67;;
25359;SDS011;13311;51.386;0.016;2022-09-06T08:10:19;14.48;;;3.15;;
25359;SDS011;13311;51.386;0.016;2022-09-06T08:15:20;10.48;;;2.85;;
25359;SDS011;13311;51.386;0.016;2022-09-06T08:20:20;9.23;;;2.78;;
25359;SDS011;13311;51.386;0.016;2022-09-06T08:25:21;13.80;;;3.55;;
25359;SDS011;13311;51.386;0.016;2022-09-06T08:30:22;11.18;;;3.33;;
25359;SDS011;13311;51.386;0.016;2022-09-06T08:35:23;11.93;;;2.60;;
25359;SDS011;13311;51.386;0.016;2022-09-06T08:40:23;9.70;;;3.20;;
25359;SDS011;13311;51.386;0.016;2022-09-06T08:45:24;10.85;;;2.97;;
25359;SDS011;13311;51.386;0.016;2022-09-06T08:50:25;12.32;;;3.38;;
25359;SDS011;13311;51.386;0.016;2022-09-06T09:00:50;135.38;;;19.85;;
25359;SDS011;13311;51.386;0.016;2022-09-06T09:05:59;60.70;;;10.90;;
25359;SDS011;13311;51.386;0.016;2022-09-06T09:11:04;53.65;;;9.70;;
25359;SDS011;13311;51.386;0.016;2022-09-06T09:16:17;12.80;;;3.13;;
25359;SDS011;13311;51.386;0.016;2022-09-06T09:21:19;7.45;;;2.72;;
25359;SDS011;13311;51.386;0.016;2022-09-06T09:26:22;12.52;;;3.95;;
25359;SDS011;13311;51.386;0.016;2022-09-06T09:31:32;12.27;;;3.30;;
25359;SDS011;13311;51.386;0.016;2022-09-06T09:36:39;12.38;;;4.35;;
25359;SDS011;13311;51.386;0.016;2022-09-06T09:41:40;11.23;;;3.22;;
25359;SDS011;13311;51.386;0.016;2022-09-06T09:46:42;10.00;;;3.25;;
25359;SDS011;13311;51.386;0.016;2022-09-06T09:51:45;10.20;;;2.83;;
25359;SDS011;13311;51.386;0.016;2022-09-06T09:57:10;8.52;;;2.15;;
25359;SDS011;13311;51.386;0.016;2022-09-06T10:07:26;8.80;;;3.00;;
25359;SDS011;13311;51.386;0.016;2022-09-06T10:12:29;10.73;;;2.70;;
25359;SDS011;13311;51.386;0.016;2022-09-06T10:17:37;8.35;;;2.33;;
25359;SDS011;13311;51.386;0.016;2022-09-06T10:33:25;12.65;;;3.30;;
25359;SDS011;13311;51.386;0.016;2022-09-06T10:50:32;6.43;;;2.83;;
25359;SDS011;13311;51.386;0.016;2022-09-06T10:56:02;11.23;;;3.10;;
25359;SDS011;13311;51.386;0.016;2022-09-06T11:01:31;5.63;;;1.98;;
25359;SDS011;13311;51.386;0.016;2022-09-06T11:06:57;13.43;;;3.75;;
25359;SDS011;13311;51.386;0.016;2022-09-06T11:12:05;10.13;;;3.53;;
25359;SDS011;13311;51.386;0.016;2022-09-06T11:17:29;13.20;;;3.05;;
25359;SDS011;13311;51.386;0.016;2022-09-06T11:27:45;9.38;;;2.22;;
25359;SDS011;13311;51.386;0.016;2022-09-06T11:38:24;13.20;;;2.58;;
25359;SDS011;13311;51.386;0.016;2022-09-06T11:54:04;9.35;;;2.83;;
25359;SDS011;13311;51.386;0.016;2022-09-06T12:15:31;14.05;;;3.83;;
25359;SDS011;13311;51.386;0.016;2022-09-06T12:25:50;11.25;;;3.17;;
25359;SDS011;13311;51.386;0.016;2022-09-06T12:30:53;12.73;;;2.90;;
25359;SDS011;13311;51.386;0.016;2022-09-06T12:36:55;10.98;;;2.63;;
25359;SDS011;13311;51.386;0.016;2022-09-06T12:41:29;3.47;;;1.67;;
25359;SDS011;13311;51.386;0.016;2022-09-06T12:46:37;9.10;;;2.80;;
25359;SDS011;13311;51.386;0.016;2022-09-06T12:51:46;9.07;;;2.00;;
25359;SDS011;13311;51.386;0.016;2022-09-06T12:56:49;8.02;;;3.05;;
25359;SDS011;13311;51.386;0.016;2022-09-06T13:02:07;9.50;;;2.67;;
25359;SDS011;13311;51.386;0.016;2022-09-06T13:07:16;6.88;;;2.58;;
25359;SDS011;13311;51.386;0.016;2022-09-06T13:12:31;12.43;;;2.35;;
25359;SDS011;13311;51.386;0.016;2022-09-06T13:17:34;12.02;;;2.55;;
25359;SDS011;13311;51.386;0.016;2022-09-06T13:22:44;4.35;;;1.73;;
25359;SDS011;13311;51.386;0.016;2022-09-06T13:27:48;13.02;;;3.38;;
25359;SDS011;13311;51.386;0.016;2022-09-06T13:32:56;6.18;;;2.40;;
25359;SDS011;13311;51.386;0.016;2022-09-06T13:43:43;5.95;;;2.20;;
25359;SDS011;13311;51.386;0.016;2022-09-06T13:48:46;9.52;;;2.60;;
25359;SDS011;13311;51.386;0.016;2022-09-06T13:53:47;9.27;;;2.10;;
25359;SDS011;13311;51.386;0.016;2022-09-06T13:58:49;7.68;;;2.63;;
25359;SDS011;13311;51.386;0.016;2022-09-06T14:03:50;7.63;;;2.85;;
25359;SDS011;13311;51.386;0.016;2022-09-06T14:08:51;11.25;;;2.25;;
25359;SDS011;13311;51.386;0.016;2022-09-06T14:13:52;6.28;;;1.90;;
25359;SDS011;13311;51.386;0.016;2022-09-06T14:18:52;9.27;;;1.90;;
25359;SDS011;13311;51.386;0.016;2022-09-06T14:23:53;7.95;;;2.22;;
25359;SDS011;13311;51.386;0.016;2022-09-06T14:28:54;9.05;;;2.33;;
25359;SDS011;13311;51.386;0.016;2022-09-06T14:33:55;11.30;;;2.42;;
25359;SDS011;13311;51.386;0.016;2022-09-06T14:38:56;6.07;;;1.88;;
25359;SDS011;13311;51.386;0.016;2022-09-06T14:43:59;7.00;;;2.08;;
25359;SDS011;13311;51.386;0.016;2022-09-06T14:49:00;7.55;;;2.13;;
25359;SDS011;13311;51.386;0.016;2022-09-06T14:54:07;7.28;;;2.75;;
25359;SDS011;13311;51.386;0.016;2022-09-06T14:59:10;11.82;;;2.47;;
25359;SDS011;13311;51.386;0.016;2022-09-06T15:04:11;12.40;;;2.47;;
25359;SDS011;13311;51.386;0.016;2022-09-06T15:09:12;6.22;;;2.10;;
25359;SDS011;13311;51.386;0.016;2022-09-06T15:14:15;10.05;;;2.88;;
25359;SDS011;13311;51.386;0.016;2022-09-06T15:19:21;6.55;;;2.28;;
25359;SDS011;13311;51.386;0.016;2022-09-06T15:24:26;9.68;;;2.20;;
25359;SDS011;13311;51.386;0.016;2022-09-06T15:29:27;6.80;;;2.17;;
25359;SDS011;13311;51.386;0.016;2022-09-06T15:34:29;10.48;;;2.92;;
25359;SDS011;13311;51.386;0.016;2022-09-06T15:39:30;9.52;;;2.50;;
25359;SDS011;13311;51.386;0.016;2022-09-06T15:44:30;8.23;;;2.50;;
25359;SDS011;13311;51.386;0.016;2022-09-06T15:49:32;11.98;;;3.45;;
25359;SDS011;13311;51.386;0.016;2022-09-06T15:54:32;15.68;;;2.83;;
25359;SDS011;13311;51.386;0.016;2022-09-06T15:59:52;17.88;;;3.03;;
25359;SDS011;13311;51.386;0.016;2022-09-06T16:04:53;8.77;;;2.55;;
25359;SDS011;13311;51.386;0.016;2022-09-06T16:09:53;14.00;;;3.30;;
25359;SDS011;13311;51.386;0.016;2022-09-06T16:14:54;17.95;;;3.75;;
25359;SDS011;13311;51.386;0.016;2022-09-06T16:19:56;9.52;;;2.55;;
25359;SDS011;13311;51.386;0.016;2022-09-06T16:25:00;21.75;;;5.55;;
25359;SDS011;13311;51.386;0.016;2022-09-06T16:30:01;24.08;;;5.05;;
25359;SDS011;13311;51.386;0.016;2022-09-06T16:35:02;18.77;;;4.07;;
25359;SDS011;13311;51.386;0.016;2022-09-06T16:40:04;15.98;;;3.58;;
25359;SDS011;13311;51.386;0.016;2022-09-06T16:45:06;16.23;;;4.35;;
25359;SDS011;13311;51.386;0.016;2022-09-06T16:50:09;15.23;;;4.07;;
25359;SDS011;13311;51.386;0.016;2022-09-06T16:55:09;13.68;;;3.60;;
25359;SDS011;13311;51.386;0.016;2022-09-06T17:00:10;13.32;;;3.38;;
25359;SDS011;13311;51.386;0.016;2022-09-06T17:05:12;9.23;;;3.20;;
25359;SDS011;13311;51.386;0.016;2022-09-06T17:10:13;15.27;;;2.67;;
25359;SDS011;13311;51.386;0.016;2022-09-06T17:15:14;7.10;;;2.15;;
25359;SDS011;13311;51.386;0.016;2022-09-06T17:20:15;10.98;;;2.55;;
25359;SDS011;13311;51.386;0.016;2022-09-06T17:25:19;6.00;;;1.70;;
25359;SDS011;13311;51.386;0.016;2022-09-06T17:30:20;5.00;;;1.73;;
25359;SDS011;13311;51.386;0.016;2022-09-06T17:35:20;8.52;;;2.20;;
25359;SDS011;13311;51.386;0.016;2022-09-06T17:40:21;8.52;;;2.05;;
25359;SDS011;13311;51.386;0.016;2022-09-06T17:45:22;8.38;;;3.00;;
25359;SDS011;13311;51.386;0.016;2022-09-06T17:50:23;8.43;;;2.28;;
25359;SDS011;13311;51.386;0.016;2022-09-06T17:55:23;9.18;;;2.83;;
25359;SDS011;13311;51.386;0.016;2022-09-06T18:00:27;9.07;;;2.33;;
25359;SDS011;13311;51.386;0.016;2022-09-06T18:05:28;7.50;;;2.78;;
25359;SDS011;13311;51.386;0.016;2022-09-06T18:10:31;4.88;;;1.77;;
25359;SDS011;13311;51.386;0.016;2022-09-06T18:15:37;11.27;;;2.25;;
25359;SDS011;13311;51.386;0.016;2022-09-06T18:20:39;11.60;;;2.40;;
25359;SDS011;13311;51.386;0.016;2022-09-06T18:25:40;11.80;;;2.58;;
25359;SDS011;13311;51.386;0.016;2022-09-06T18:30:40;10.07;;;3.17;;
25359;SDS011;13311;51.386;0.016;2022-09-06T18:35:42;7.93;;;2.28;;
25359;SDS011;13311;51.386;0.016;2022-09-06T18:41:16;9.50;;;2.58;;
25359;SDS011;13311;51.386;0.016;2022-09-06T18:46:32;7.90;;;1.88;;
25359;SDS011;13311;51.386;0.016;2022-09-06T18:51:37;10.18;;;2.38;;
25359;SDS011;13311;51.386;0.016;2022-09-06T18:56:39;6.28;;;2.15;;
25359;SDS011;13311;51.386;0.016;2022-09-06T19:01:41;9.45;;;2.28;;
25359;SDS011;13311;51.386;0.016;2022-09-06T19:06:43;10.23;;;2.33;;
25359;SDS011;13311;51.386;0.016;2022-09-06T19:11:44;6.53;;;1.85;;
25359;SDS011;13311;51.386;0.016;2022-09-06T19:16:48;10.70;;;2.20;;
25359;SDS011;13311;51.386;0.016;2022-09-06T19:21:50;7.22;;;2.40;;
25359;SDS011;13311;51.386;0.016;2022-09-06T19:26:51;9.50;;;1.98;;
25359;SDS011;13311;51.386;0.016;2022-09-06T19:31:52;5.80;;;1.88;;
25359;SDS011;13311;51.386;0.016;2022-09-06T19:36:53;7.25;;;2.05;;
25359;SDS011;13311;51.386;0.016;2022-09-06T19:41:56;8.60;;;1.80;;
25359;SDS011;13311;51.386;0.016;2022-09-06T19:46:56;5.40;;;1.23;;
25359;SDS011;13311;51.386;0.016;2022-09-06T19:51:59;5.70;;;1.50;;
25359;SDS011;13311;51.386;0.016;2022-09-06T19:57:00;11.10;;;3.17;;
25359;SDS011;13311;51.386;0.016;2022-09-06T20:02:02;4.97;;;1.98;;
25359;SDS011;13311;51.386;0.016;2022-09-06T20:07:03;5.47;;;1.30;;
25359;SDS011;13311;51.386;0.016;2022-09-06T20:12:04;6.57;;;1.40;;
25359;SDS011;13311;51.386;0.016;2022-09-06T20:17:05;9.23;;;2.13;;
25359;SDS011;13311;51.386;0.016;2022-09-06T20:22:06;7.13;;;1.73;;
25359;SDS011;13311;51.386;0.016;2022-09-06T20:27:07;4.43;;;1.30;;
25359;SDS011;13311;51.386;0.016;2022-09-06T20:32:07;6.57;;;1.52;;
25359;SDS011;13311;51.386;0.016;2022-09-06T20:37:08;6.38;;;1.85;;
25359;SDS011;13311;51.386;0.016;2022-09-06T20:42:09;13.18;;;2.42;;
25359;SDS011;13311;51.386;0.016;2022-09-06T20:47:10;7.50;;;1.50;;
25359;SDS011;13311;51.386;0.016;2022-09-06T20:52:10;7.15;;;2.58;;
25359;SDS011;13311;51.386;0.016;2022-09-06T20:57:11;6.75;;;2.05;;
25359;SDS011;13311;51.386;0.016;2022-09-06T21:02:12;7.63;;;2.22;;
25359;SDS011;13311;51.386;0.016;2022-09-06T21:07:12;6.18;;;1.77;;
25359;SDS011;13311;51.386;0.016;2022-09-06T21:12:13;8.80;;;2.80;;
25359;SDS011;13311;51.386;0.016;2022-09-06T21:17:14;9.98;;;2.17;;
25359;SDS011;13311;51.386;0.016;2022-09-06T21:22:14;9.25;;;3.10;;
25359;SDS011;13311;51.386;0.016;2022-09-06T21:27:17;10.70;;;2.25;;
25359;SDS011;13311;51.386;0.016;2022-09-06T21:32:17;8.52;;;2.35;;
25359;SDS011;13311;51.386;0.016;2022-09-06T21:37:18;10.05;;;2.42;;
25359;SDS011;13311;51.386;0.016;2022-09-06T21:42:19;5.78;;;2.05;;
25359;SDS011;13311;51.386;0.016;2022-09-06T21:47:20;9.32;;;2.10;;
25359;SDS011;13311;51.386;0.016;2022-09-06T21:52:21;15.25;;;3.03;;
25359;SDS011;13311;51.386;0.016;2022-09-06T21:57:22;9.57;;;2.13;;
25359;SDS011;13311;51.386;0.016;2022-09-06T22:02:23;15.88;;;2.85;;
25359;SDS011;13311;51.386;0.016;2022-09-06T22:07:26;11.20;;;2.15;;
25359;SDS011;13311;51.386;0.016;2022-09-06T22:12:26;14.82;;;2.45;;
25359;SDS011;13311;51.386;0.016;2022-09-06T22:17:27;14.85;;;3.08;;
25359;SDS011;13311;51.386;0.016;2022-09-06T22:22:28;16.90;;;2.90;;
25359;SDS011;13311;51.386;0.016;2022-09-06T22:27:29;9.88;;;2.55;;
25359;SDS011;13311;51.386;0.016;2022-09-06T22:32:31;10.65;;;2.72;;
25359;SDS011;13311;51.386;0.016;2022-09-06T22:37:32;9.80;;;2.65;;
25359;SDS011;13311;51.386;0.016;2022-09-06T22:42:33;13.52;;;3.03;;
25359;SDS011;13311;51.386;0.016;2022-09-06T22:47:33;13.57;;;2.90;;
25359;SDS011;13311;51.386;0.016;2022-09-06T22:52:34;13.20;;;3.20;;
25359;SDS011;13311;51.386;0.016;2022-09-06T22:57:35;11.02;;;2.58;;
25359;SDS011;13311;51.386;0.016;2022-09-06T23:02:35;7.75;;;2.17;;
25359;SDS011;13311;51.386;0.016;2022-09-06T23:07:36;7.22;;;2.00;;
25359;SDS011;13311;51.386;0.016;2022-09-06T23:12:37;5.88;;;1.73;;
25359;SDS011;13311;51.386;0.016;2022-09-06T23:17:38;7.57;;;1.83;;
25359;SDS011;13311;51.386;0.016;2022-09-06T23:22:39;9.75;;;2.95;;
25359;SDS011;13311;51.386;0.016;2022-09-06T23:27:40;4.13;;;1.90;;
25359;SDS011;13311;51.386;0.016;2022-09-06T23:32:40;12.10;;;3.33;;
25359;SDS011;13311;51.386;0.016;2022-09-06T23:37:41;13.40;;;2.70;;
25359;SDS011;13311;51.386;0.016;2022-09-06T23:42:42;10.68;;;2.17;;
25359;SDS011;13311;51.386;0.016;2022-09-06T23:47:42;10.57;;;1.70;;
25359;SDS011;13311;51.386;0.016;2022-09-06T23:52:43;22.65;;;2.03;;
25359;SDS011;13311;51.386;0.016;2022-09-06T23:57:44;7.43;;;1.73;;
